createdAt,value
2023-03-01T00:01:20.111Z,62.46
2023-03-01T00:03:47.417Z,62.59
2023-03-01T00:06:14.321Z,62.76
2023-03-01T00:08:41.061Z,62.82
2023-03-01T00:11:15.192Z,62.94
2023-03-01T00:13:42.736Z,63.05
2023-03-01T00:16:14.097Z,62.75
2023-03-01T00:18:40.966Z,63.24
2023-03-01T00:21:07.839Z,63.08
2023-03-01T00:23:37.849Z,63.32
2023-03-01T00:26:08.618Z,63.37
2023-03-01T00:28:35.965Z,63.51
2023-03-01T00:31:23.527Z,63.32
2023-03-01T00:33:53.592Z,63.33
2023-03-01T00:36:20.836Z,63.33
2023-03-01T00:38:47.377Z,63.77
2023-03-01T00:41:16.287Z,63.87
2023-03-01T00:43:43.342Z,63.65
2023-03-01T00:46:13.129Z,63.84
2023-03-01T00:48:40.243Z,63.84
2023-03-01T00:51:08.226Z,64.08
2023-03-01T00:53:35.502Z,63.78
2023-03-01T00:56:02.786Z,63.87
2023-03-01T00:58:29.450Z,63.83
2023-03-01T01:00:55.956Z,64.25
2023-03-01T01:03:24.417Z,64.22
2023-03-01T01:05:50.993Z,64.04
2023-03-01T01:08:17.621Z,64.25
2023-03-01T01:10:45.732Z,64.33
2023-03-01T01:13:12.493Z,64.42
2023-03-01T01:15:39.436Z,64.30
2023-03-01T01:18:06.155Z,64.41
2023-03-01T01:20:33.125Z,64.58
2023-03-01T01:22:59.676Z,64.77
2023-03-01T01:25:27.521Z,64.56
2023-03-01T01:27:53.994Z,64.69
2023-03-01T01:30:20.512Z,64.53
2023-03-01T01:32:47.071Z,64.62
2023-03-01T01:35:13.516Z,64.38
2023-03-01T01:37:39.991Z,64.42
2023-03-01T01:40:07.298Z,64.38
2023-03-01T01:42:33.807Z,64.56
2023-03-01T01:45:25.044Z,64.49
2023-03-01T01:47:53.749Z,64.94
2023-03-01T01:50:20.533Z,64.38
2023-03-01T01:52:51.404Z,64.64
2023-03-01T01:55:24.692Z,64.92
2023-03-01T01:57:55.798Z,64.73
2023-03-01T02:00:25.338Z,64.66
2023-03-01T02:02:58.154Z,64.70
2023-03-01T02:05:44.433Z,65.07
2023-03-01T02:08:13.366Z,64.84
2023-03-01T02:10:41.378Z,64.82
2023-03-01T02:13:08.294Z,65.15
2023-03-01T02:15:36.680Z,64.94
2023-03-01T02:18:04.699Z,64.84
2023-03-01T02:20:39.989Z,64.93
2023-03-01T02:23:06.899Z,64.90
2023-03-01T02:25:39.296Z,65.31
2023-03-01T02:28:15.231Z,65.11
2023-03-01T02:31:03.413Z,65.01
2023-03-01T02:33:33.941Z,65.19
2023-03-01T02:36:05.064Z,65.40
2023-03-01T02:38:33.099Z,65.28
2023-03-01T02:41:02.470Z,65.40
2023-03-01T02:43:33.721Z,65.69
2023-03-01T02:46:06.791Z,65.78
2023-03-01T02:48:45.532Z,65.79
2023-03-01T02:51:33.652Z,65.74
2023-03-01T02:54:14.459Z,65.66
2023-03-01T02:56:42.229Z,66.01
2023-03-01T02:59:10.468Z,66.07
2023-03-01T03:01:39.848Z,66.14
2023-03-01T03:04:08.724Z,66.27
2023-03-01T03:06:35.871Z,66.47
2023-03-01T03:09:03.223Z,66.18
2023-03-01T03:11:29.918Z,66.05
2023-03-01T03:13:56.971Z,66.19
2023-03-01T03:16:23.648Z,66.07
2023-03-01T03:18:50.258Z,66.03
2023-03-01T03:21:17.341Z,66.02
2023-03-01T03:23:44.953Z,66.12
2023-03-01T03:26:16.013Z,65.89
2023-03-01T03:28:42.470Z,66.08
2023-03-01T03:31:09.349Z,66.27
2023-03-01T03:33:36.240Z,66.23
2023-03-01T03:36:02.846Z,66.22
2023-03-01T03:38:29.537Z,66.22
2023-03-01T03:41:05.194Z,66.43
2023-03-01T03:43:34.110Z,66.50
2023-03-01T03:46:00.944Z,66.68
2023-03-01T03:48:27.744Z,66.46
2023-03-01T03:50:56.662Z,66.52
2023-03-01T03:53:25.293Z,66.78
2023-03-01T03:55:52.695Z,66.57
2023-03-01T03:58:21.373Z,66.62
2023-03-01T04:00:50.263Z,66.56
2023-03-01T04:03:19.798Z,66.63
2023-03-01T04:05:47.125Z,66.67
2023-03-01T04:08:14.733Z,66.48
2023-03-01T04:10:45.522Z,66.65
2023-03-01T04:13:14.781Z,66.37
2023-03-01T04:15:41.609Z,66.97
2023-03-01T04:18:12.965Z,67.09
2023-03-01T04:20:39.917Z,66.83
2023-03-01T04:23:14.218Z,67.03
2023-03-01T04:25:58.525Z,66.58
2023-03-01T04:28:30.494Z,67.05
2023-03-01T04:30:58.690Z,67.01
2023-03-01T04:33:26.230Z,67.36
2023-03-01T04:35:53.352Z,67.61
2023-03-01T04:38:20.549Z,67.67
2023-03-01T04:40:47.029Z,67.80
2023-03-01T04:43:16.707Z,67.57
2023-03-01T04:45:43.346Z,67.75
2023-03-01T04:48:10.432Z,68.00
2023-03-01T04:50:37.539Z,67.60
2023-03-01T04:53:04.627Z,67.62
2023-03-01T04:55:32.509Z,68.34
2023-03-01T04:57:59.523Z,68.06
2023-03-01T05:00:26.018Z,68.64
2023-03-01T05:03:00.435Z,68.55
2023-03-01T05:05:31.160Z,68.92
2023-03-01T05:08:00.242Z,68.32
2023-03-01T05:10:30.207Z,68.68
2023-03-01T05:12:58.415Z,68.83
2023-03-01T05:15:29.395Z,68.72
2023-03-01T05:17:59.671Z,68.73
2023-03-01T05:20:27.617Z,68.62
2023-03-01T05:22:57.604Z,68.79
2023-03-01T05:25:24.121Z,68.89
2023-03-01T05:27:51.323Z,68.97
2023-03-01T05:30:18.641Z,70.24
2023-03-01T05:32:48.057Z,70.43
2023-03-01T05:35:17.481Z,69.85
2023-03-01T05:37:46.705Z,70.39
2023-03-01T05:40:18.000Z,70.05
2023-03-01T05:42:46.358Z,70.18
2023-03-01T05:45:14.028Z,69.22
2023-03-01T05:47:44.774Z,69.07
2023-03-01T05:50:13.734Z,69.04
2023-03-01T05:52:40.594Z,68.89
2023-03-01T05:55:07.975Z,68.61
2023-03-01T05:57:34.484Z,68.74
2023-03-01T06:00:00.990Z,68.62
2023-03-01T06:02:28.660Z,68.61
2023-03-01T06:04:55.359Z,68.15
2023-03-01T06:07:22.083Z,68.96
2023-03-01T06:09:48.652Z,68.80
2023-03-01T06:12:15.147Z,68.41
2023-03-01T06:14:41.707Z,68.08
2023-03-01T06:17:08.249Z,68.43
2023-03-01T06:19:34.725Z,67.88
2023-03-01T06:22:01.354Z,67.87
2023-03-01T06:24:29.802Z,68.12
2023-03-01T06:26:56.911Z,67.63
2023-03-01T06:29:23.694Z,68.09
2023-03-01T06:31:50.343Z,69.80
2023-03-01T06:34:16.946Z,68.69
2023-03-01T06:36:43.427Z,67.82
2023-03-01T06:39:10.102Z,67.86
2023-03-01T06:41:36.687Z,68.22
2023-03-01T06:44:03.788Z,68.27
2023-03-01T06:46:30.628Z,67.47
2023-03-01T06:48:57.549Z,67.71
2023-03-01T06:51:24.132Z,67.50
2023-03-01T06:53:50.601Z,68.02
2023-03-01T06:56:17.099Z,67.96
2023-03-01T06:58:43.706Z,67.88
2023-03-01T07:01:10.191Z,67.73
2023-03-01T07:03:36.738Z,67.24
2023-03-01T07:06:03.465Z,67.22
2023-03-01T07:08:30.178Z,67.03
2023-03-01T07:10:58.582Z,66.88
2023-03-01T07:13:25.294Z,66.79
2023-03-01T07:15:51.864Z,66.59
2023-03-01T07:18:18.357Z,66.32
2023-03-01T07:20:44.861Z,66.47
2023-03-01T07:23:11.375Z,65.91
2023-03-01T07:25:37.944Z,66.04
2023-03-01T07:28:04.650Z,65.78
2023-03-01T07:30:31.551Z,66.03
2023-03-01T07:32:59.099Z,65.96
2023-03-01T07:35:29.080Z,65.72
2023-03-01T07:37:55.627Z,65.85
2023-03-01T07:40:23.416Z,66.00
2023-03-01T07:42:49.948Z,65.92
2023-03-01T07:45:16.622Z,65.80
2023-03-01T07:47:43.069Z,65.84
2023-03-01T07:50:10.585Z,65.58
2023-03-01T07:52:37.207Z,65.02
2023-03-01T07:55:03.854Z,64.89
2023-03-01T07:57:30.501Z,64.99
2023-03-01T07:59:57.017Z,64.94
2023-03-01T08:02:23.610Z,64.67
2023-03-01T08:04:50.198Z,64.90
2023-03-01T08:07:16.777Z,64.89
2023-03-01T08:09:43.466Z,64.87
2023-03-01T08:12:10.069Z,64.71
2023-03-01T08:14:36.656Z,64.45
2023-03-01T08:17:04.236Z,64.33
2023-03-01T08:19:31.395Z,63.89
2023-03-01T08:22:00.964Z,63.79
2023-03-01T08:24:27.671Z,63.50
2023-03-01T08:26:54.452Z,63.57
2023-03-01T08:29:21.229Z,62.76
2023-03-01T08:31:49.054Z,63.23
2023-03-01T08:34:18.890Z,63.16
2023-03-01T08:36:46.996Z,62.88
2023-03-01T08:39:16.493Z,62.38
2023-03-01T08:41:43.838Z,62.14
2023-03-01T08:44:12.525Z,62.10
2023-03-01T08:46:41.770Z,61.93
2023-03-01T08:49:12.465Z,61.31
2023-03-01T08:51:39.863Z,60.68
2023-03-01T08:54:19.125Z,60.70
2023-03-01T08:56:46.300Z,60.13
2023-03-01T08:59:14.227Z,60.12
2023-03-01T09:01:44.236Z,59.82
2023-03-01T09:04:29.027Z,59.62
2023-03-01T09:06:56.029Z,59.66
2023-03-01T09:09:22.742Z,59.14
2023-03-01T09:11:51.158Z,59.25
2023-03-01T09:14:18.074Z,58.79
2023-03-01T09:16:44.904Z,58.45
2023-03-01T09:19:12.320Z,58.48
2023-03-01T09:21:41.254Z,58.33
2023-03-01T09:24:17.310Z,58.56
2023-03-01T09:26:44.121Z,58.20
2023-03-01T09:29:11.028Z,57.94
2023-03-01T09:31:38.316Z,57.94
2023-03-01T09:34:05.400Z,57.75
2023-03-01T09:36:33.146Z,57.77
2023-03-01T09:39:01.052Z,57.71
2023-03-01T09:41:48.947Z,57.44
2023-03-01T09:44:35.562Z,57.36
2023-03-01T09:47:03.482Z,57.23
2023-03-01T09:49:36.933Z,56.64
2023-03-01T09:52:20.353Z,56.75
2023-03-01T09:54:49.127Z,56.72
2023-03-01T09:57:27.744Z,56.70
2023-03-01T10:00:31.347Z,56.59
2023-03-01T10:03:11.171Z,56.13
2023-03-01T10:05:43.499Z,56.00
2023-03-01T10:08:28.363Z,55.60
2023-03-01T10:10:55.085Z,55.41
2023-03-01T10:13:30.354Z,55.40
2023-03-01T10:16:13.394Z,55.65
2023-03-01T10:18:42.189Z,55.44
2023-03-01T10:21:17.749Z,55.12
2023-03-01T10:23:44.529Z,55.09
2023-03-01T10:26:33.325Z,55.20
2023-03-01T10:29:06.586Z,54.85
2023-03-01T10:31:38.938Z,54.71
2023-03-01T10:34:15.431Z,54.03
2023-03-01T10:36:43.789Z,54.29
2023-03-01T10:39:17.243Z,54.13
2023-03-01T10:41:58.202Z,54.06
2023-03-01T10:44:46.451Z,53.55
2023-03-01T10:47:18.352Z,53.63
2023-03-01T10:49:52.980Z,53.57
2023-03-01T10:52:22.622Z,53.84
2023-03-01T10:54:55.079Z,52.46
2023-03-01T10:57:42.456Z,52.53
2023-03-01T11:00:26.848Z,54.27
2023-03-01T11:02:59.607Z,52.81
2023-03-01T11:05:29.804Z,52.68
2023-03-01T11:08:01.829Z,52.84
2023-03-01T11:10:35.252Z,52.98
2023-03-01T11:13:16.512Z,52.29
2023-03-01T11:15:44.191Z,52.06
2023-03-01T11:18:25.078Z,52.00
2023-03-01T11:21:01.318Z,50.33
2023-03-01T11:23:30.741Z,50.48
2023-03-01T11:26:04.071Z,50.76
2023-03-01T11:28:35.095Z,50.72
2023-03-01T11:31:10.611Z,50.38
2023-03-01T11:34:21.216Z,50.49
2023-03-01T11:36:55.843Z,49.60
2023-03-01T11:40:01.231Z,49.51
2023-03-01T11:42:45.109Z,48.94
2023-03-01T11:45:13.445Z,48.76
2023-03-01T11:47:46.240Z,48.13
2023-03-01T11:50:12.867Z,48.47
2023-03-01T11:53:10.962Z,48.81
2023-03-01T11:56:06.747Z,49.47
2023-03-01T11:59:07.483Z,49.18
2023-03-01T12:01:48.313Z,49.21
2023-03-01T12:04:52.686Z,49.34
2023-03-01T12:07:44.586Z,48.74
2023-03-01T12:10:53.197Z,48.57
2023-03-01T12:13:29.002Z,48.88
2023-03-01T12:16:38.899Z,48.37
2023-03-01T12:19:09.660Z,48.66
2023-03-01T12:22:06.182Z,48.11
2023-03-01T12:24:32.740Z,48.36
2023-03-01T12:27:21.154Z,48.18
2023-03-01T12:29:52.025Z,47.57
2023-03-01T12:32:36.420Z,47.23
2023-03-01T12:35:35.262Z,47.75
2023-03-01T12:38:37.838Z,47.81
2023-03-01T12:41:38.782Z,46.92
2023-03-01T12:44:14.963Z,47.34
2023-03-01T12:47:11.962Z,47.89
2023-03-01T12:49:45.915Z,47.71
2023-03-01T12:52:19.308Z,48.16
2023-03-01T12:54:53.601Z,48.28
2023-03-01T12:57:38.040Z,47.82
2023-03-01T13:00:32.474Z,48.08
2023-03-01T13:03:39.529Z,47.81
2023-03-01T13:06:20.418Z,47.79
2023-03-01T13:08:55.019Z,46.95
2023-03-01T13:11:23.935Z,47.24
2023-03-01T13:13:52.686Z,46.86
2023-03-01T13:16:41.506Z,47.48
2023-03-01T13:19:25.698Z,47.07
2023-03-01T13:21:59.234Z,47.23
2023-03-01T13:24:25.754Z,47.29
2023-03-01T13:27:24.108Z,47.15
2023-03-01T13:30:06.857Z,46.92
2023-03-01T13:32:44.697Z,46.50
2023-03-01T13:35:20.922Z,46.38
2023-03-01T13:37:48.274Z,46.46
2023-03-01T13:40:20.444Z,46.58
2023-03-01T13:42:56.391Z,46.00
2023-03-01T13:45:40.546Z,46.36
2023-03-01T13:48:24.976Z,46.36
2023-03-01T13:51:00.164Z,46.60
2023-03-01T13:53:30.897Z,45.88
2023-03-01T13:56:20.876Z,46.33
2023-03-01T13:58:55.636Z,46.23
2023-03-01T14:01:34.234Z,46.45
2023-03-01T14:04:02.770Z,46.19
2023-03-01T14:06:36.666Z,46.21
2023-03-01T14:09:21.594Z,46.13
2023-03-01T14:12:06.266Z,46.08
2023-03-01T14:14:52.201Z,46.93
2023-03-01T14:17:33.587Z,46.57
2023-03-01T14:20:04.340Z,46.69
2023-03-01T14:25:17.867Z,47.03
2023-03-01T14:27:45.262Z,46.83
2023-03-01T14:30:25.018Z,47.20
2023-03-01T14:32:57.394Z,46.96
2023-03-01T14:35:33.602Z,47.62
2023-03-01T14:38:00.180Z,46.54
2023-03-01T14:40:38.277Z,47.17
2023-03-01T14:43:12.490Z,46.91
2023-03-01T14:45:39.166Z,47.18
2023-03-01T14:48:07.498Z,47.81
2023-03-01T14:50:36.250Z,47.50
2023-03-01T14:53:06.492Z,47.28
2023-03-01T14:55:38.024Z,47.39
2023-03-01T14:58:07.225Z,47.53
2023-03-01T15:00:35.944Z,47.45
2023-03-01T15:03:14.405Z,47.72
2023-03-01T15:05:43.876Z,47.75
2023-03-01T15:08:19.996Z,47.90
2023-03-01T15:11:03.737Z,48.55
2023-03-01T15:13:36.351Z,48.61
2023-03-01T15:16:07.901Z,48.87
2023-03-01T15:18:36.442Z,48.33
2023-03-01T15:21:31.757Z,48.46
2023-03-01T15:24:21.102Z,48.38
2023-03-01T15:27:08.000Z,48.13
2023-03-01T15:29:41.447Z,48.88
2023-03-01T15:32:33.193Z,49.09
2023-03-01T15:35:01.874Z,49.02
2023-03-01T15:37:48.792Z,48.67
2023-03-01T15:40:21.959Z,48.57
2023-03-01T15:42:49.364Z,48.65
2023-03-01T15:45:17.212Z,48.52
2023-03-01T15:48:05.331Z,48.51
2023-03-01T15:50:34.531Z,48.91
2023-03-01T15:53:05.223Z,48.54
2023-03-01T15:55:34.214Z,48.11
2023-03-01T15:58:08.068Z,48.21
2023-03-01T16:00:35.860Z,47.92
2023-03-01T16:03:02.502Z,48.29
2023-03-01T16:05:31.704Z,48.48
2023-03-01T16:07:58.483Z,48.05
2023-03-01T16:10:26.194Z,48.65
2023-03-01T16:12:53.837Z,49.13
2023-03-01T16:15:25.204Z,48.66
2023-03-01T16:17:53.131Z,48.44
2023-03-01T16:20:28.081Z,48.13
2023-03-01T16:22:55.405Z,48.09
2023-03-01T16:25:22.472Z,48.04
2023-03-01T16:27:51.321Z,47.72
2023-03-01T16:30:20.831Z,47.96
2023-03-01T16:32:49.094Z,47.20
2023-03-01T16:35:19.742Z,47.17
2023-03-01T16:37:46.574Z,47.45
2023-03-01T16:40:22.403Z,47.67
2023-03-01T16:42:49.975Z,47.91
2023-03-01T16:45:25.191Z,47.98
2023-03-01T16:47:55.470Z,48.56
2023-03-01T16:50:22.889Z,48.17
2023-03-01T16:52:49.553Z,48.08
2023-03-01T16:55:16.191Z,48.44
2023-03-01T16:57:42.748Z,48.39
2023-03-01T17:00:12.272Z,49.04
2023-03-01T17:02:38.894Z,49.04
2023-03-01T17:05:06.402Z,48.90
2023-03-01T17:07:36.988Z,49.66
2023-03-01T17:10:05.690Z,49.53
2023-03-01T17:12:33.093Z,49.68
2023-03-01T17:14:59.645Z,49.91
2023-03-01T17:17:26.542Z,49.89
2023-03-01T17:19:53.808Z,49.64
2023-03-01T17:22:20.409Z,50.12
2023-03-01T17:24:47.084Z,49.99
2023-03-01T17:27:13.779Z,50.22
2023-03-01T17:29:41.684Z,50.08
2023-03-01T17:32:09.980Z,50.10
2023-03-01T17:34:37.922Z,50.59
2023-03-01T17:37:04.519Z,50.37
2023-03-01T17:39:36.400Z,50.43
2023-03-01T17:42:05.278Z,50.48
2023-03-01T17:44:34.489Z,50.21
2023-03-01T17:47:02.795Z,50.20
2023-03-01T17:49:33.039Z,50.30
2023-03-01T17:52:00.672Z,50.74
2023-03-01T17:54:27.492Z,50.89
2023-03-01T17:56:56.210Z,50.70
2023-03-01T17:59:22.827Z,51.08
2023-03-01T18:01:49.295Z,51.10
2023-03-01T18:04:16.254Z,51.05
2023-03-01T18:06:42.823Z,51.49
2023-03-01T18:09:09.595Z,51.62
2023-03-01T18:11:37.208Z,51.50
2023-03-01T18:14:04.684Z,51.47
2023-03-01T18:16:32.613Z,51.76
2023-03-01T18:19:01.243Z,52.04
2023-03-01T18:21:29.788Z,51.88
2023-03-01T18:23:56.830Z,51.55
2023-03-01T18:26:27.726Z,51.99
2023-03-01T18:28:55.332Z,52.09
2023-03-01T18:31:22.814Z,51.87
2023-03-01T18:33:52.409Z,51.70
2023-03-01T18:36:23.154Z,52.18
2023-03-01T18:38:49.958Z,51.78
2023-03-01T18:41:16.846Z,51.85
2023-03-01T18:43:43.413Z,52.32
2023-03-01T18:46:10.268Z,52.16
2023-03-01T18:48:37.328Z,52.42
2023-03-01T18:51:14.366Z,52.67
2023-03-01T18:53:40.983Z,52.34
2023-03-01T18:56:08.852Z,52.74
2023-03-01T18:58:35.930Z,52.61
2023-03-01T19:01:04.986Z,52.76
2023-03-01T19:03:32.075Z,52.65
2023-03-01T19:06:02.118Z,52.91
2023-03-01T19:08:30.553Z,52.68
2023-03-01T19:11:03.207Z,52.81
2023-03-01T19:13:31.618Z,53.05
2023-03-01T19:16:13.968Z,52.96
2023-03-01T19:18:43.169Z,53.23
2023-03-01T19:21:12.049Z,53.35
2023-03-01T19:23:39.297Z,53.05
2023-03-01T19:26:08.674Z,53.85
2023-03-01T19:28:39.115Z,53.26
2023-03-01T19:31:09.158Z,53.85
2023-03-01T19:33:37.534Z,53.40
2023-03-01T19:36:04.783Z,53.93
2023-03-01T19:38:31.705Z,53.72
2023-03-01T19:40:58.419Z,53.71
2023-03-01T19:43:25.422Z,53.35
2023-03-01T19:45:53.315Z,53.93
2023-03-01T19:48:20.534Z,53.79
2023-03-01T19:50:47.563Z,53.75
2023-03-01T19:53:15.797Z,54.03
2023-03-01T19:55:42.779Z,53.69
2023-03-01T19:58:13.160Z,54.11
2023-03-01T20:00:45.014Z,53.99
2023-03-01T20:03:11.644Z,54.41
2023-03-01T20:05:39.353Z,54.38
2023-03-01T20:08:06.559Z,54.13
2023-03-01T20:10:34.065Z,54.44
2023-03-01T20:13:03.998Z,54.45
2023-03-01T20:15:31.058Z,54.60
2023-03-01T20:17:57.536Z,54.50
2023-03-01T20:20:27.158Z,54.52
2023-03-01T20:22:53.697Z,54.78
2023-03-01T20:25:20.289Z,54.56
2023-03-01T20:27:47.643Z,54.83
2023-03-01T20:30:15.823Z,54.81
2023-03-01T20:32:42.418Z,54.93
2023-03-01T20:35:09.699Z,54.97
2023-03-01T20:37:37.002Z,55.17
2023-03-01T20:40:04.288Z,55.37
2023-03-01T20:42:30.810Z,55.33
2023-03-01T20:44:57.439Z,55.57
2023-03-01T20:47:24.033Z,55.34
2023-03-01T20:49:51.935Z,55.29
2023-03-01T20:52:18.740Z,55.42
2023-03-01T20:54:45.256Z,55.69
2023-03-01T20:57:12.095Z,55.68
2023-03-01T20:59:38.723Z,55.90
2023-03-01T21:02:05.334Z,55.60
2023-03-01T21:04:31.835Z,55.67
2023-03-01T21:06:58.352Z,55.71
2023-03-01T21:09:24.938Z,55.80
2023-03-01T21:11:51.453Z,55.90
2023-03-01T21:14:18.050Z,56.13
2023-03-01T21:16:45.966Z,56.08
2023-03-01T21:19:12.773Z,56.08
2023-03-01T21:21:39.430Z,55.95
2023-03-01T21:24:06.751Z,56.20
2023-03-01T21:26:33.745Z,56.04
2023-03-01T21:29:01.757Z,55.90
2023-03-01T21:31:35.003Z,56.53
2023-03-01T21:34:04.923Z,56.66
2023-03-01T21:36:32.772Z,56.61
2023-03-01T21:39:01.922Z,56.70
2023-03-01T21:41:31.657Z,56.29
2023-03-01T21:44:00.939Z,56.68
2023-03-01T21:46:31.132Z,56.88
2023-03-01T21:48:58.190Z,56.50
2023-03-01T21:51:27.081Z,56.56
2023-03-01T21:53:55.844Z,56.92
2023-03-01T21:56:25.601Z,56.81
2023-03-01T21:58:52.980Z,57.00
2023-03-01T22:01:24.694Z,56.92
2023-03-01T22:03:51.669Z,56.91
2023-03-01T22:06:22.808Z,57.15
2023-03-01T22:08:52.495Z,56.97
2023-03-01T22:11:20.463Z,57.16
2023-03-01T22:13:49.525Z,56.90
2023-03-01T22:16:16.902Z,57.37
2023-03-01T22:18:43.514Z,57.28
2023-03-01T22:21:11.109Z,57.04
2023-03-01T22:23:39.757Z,56.81
2023-03-01T22:26:07.196Z,56.92
2023-03-01T22:28:34.373Z,56.92
2023-03-01T22:31:06.993Z,56.84
2023-03-01T22:33:33.487Z,56.85
2023-03-01T22:36:00.042Z,56.74
2023-03-01T22:38:26.680Z,57.15
2023-03-01T22:41:01.248Z,57.01
2023-03-01T22:43:29.302Z,56.73
2023-03-01T22:45:56.162Z,57.18
2023-03-01T22:48:23.724Z,57.02
2023-03-01T22:50:50.499Z,57.13
2023-03-01T22:53:18.194Z,57.09
2023-03-01T22:55:44.947Z,57.20
2023-03-01T22:58:11.442Z,57.23
2023-03-01T23:00:38.004Z,56.98
2023-03-01T23:03:04.821Z,56.90
2023-03-01T23:05:31.444Z,57.06
2023-03-01T23:07:57.909Z,57.10
2023-03-01T23:10:25.920Z,57.01
2023-03-01T23:12:55.283Z,56.91
2023-03-01T23:15:22.102Z,57.34
2023-03-01T23:17:48.641Z,57.11
2023-03-01T23:20:15.732Z,56.87
2023-03-01T23:22:42.444Z,57.08
2023-03-01T23:25:13.204Z,57.02
2023-03-01T23:27:39.809Z,57.23
2023-03-01T23:30:08.327Z,57.22
2023-03-01T23:32:40.594Z,56.98
2023-03-01T23:35:08.992Z,56.94
2023-03-01T23:37:35.518Z,56.75
2023-03-01T23:40:02.238Z,57.24
2023-03-01T23:42:28.742Z,57.01
2023-03-01T23:44:55.266Z,57.13
2023-03-01T23:47:21.965Z,56.93
2023-03-01T23:49:50.514Z,57.31
2023-03-01T23:52:17.383Z,57.42
2023-03-01T23:54:44.519Z,57.27
2023-03-01T23:57:11.029Z,57.42
2023-03-01T23:59:37.635Z,57.58
